Burns, OR

5:25 AM PDT on May 24, 2015 (GMT -0700)
Ontario Municipal | | Change Station
CLOSE
Current Station
Airport
Location: Ontario,
Elevation: 2192 ft
Nearby Weather Stations

Elev 2192 ft 44.02 °N, 117.01 °W | Updated 32 minutes ago

Clear
Clear
53 °F
Feels Like 53 °F
N
7
Wind Variable Wind from WNW

Today
High -- | Low -- °F
--% Chance of Precip.
Yesterday
High -- | Low -- °F
Precip. -- in
5:22 AM 8:22 PM
Waxing Crescent, 38% visible
Pressure 29.94 in
Visibility 10.0 miles
Clouds Clear
Dew Point 46 °F
Humidity 77%
Rainfall 0.00 in
Snow Depth Not available.
UV 0 out of 12
Pollen 8.00 out of 12
Air Quality Not available.
Flu Activity No Activity
METAR KONO 241153Z AUTO 29006KT 10SM CLR 12/08 A2996 RMK AO2 SLP136 T01170078 10183 20117 51003

More Conditions Fewer Conditions

Pressure 29.94 in
Visibility 10.0 miles
Clouds Clear
Dew Point 46 °F
Humidity 77%
Rainfall 0.00 in
Snow Depth Not available.
UV 0 out of 12
Pollen 8.00 out of 12
Air Quality Not available.
Flu Activity No Activity
METAR KONO 241153Z AUTO 29006KT 10SM CLR 12/08 A2996 RMK AO2 SLP136 T01170078 10183 20117 51003

More Conditions Fewer Conditions

10-Day Weather Forecast

Almanac

Astronomy

May. 24, 2015 Rise Set
Actual Time
Civil Twilight
Nautical Twilight
Astronomical Twilight
Moon
Length of Visible Light
Length of Day
Tomorrow will be .
, % of the Moon is Illuminated

Today's Extremes

State Highs State Lows

Community

WunderPhotos

Upload Photos

1,823,724 photos uploaded!

WunderBlogs® & News

Nearby

Air Quality

  Air Quality AQ Index Pollutant
Not available.

Snow Depth

Station Depth Elevation

Earthquake Activity

City Distance Mag. Time & Date
Minimum magnitude displayed is 2.5.

Coastal Water Temperatures

Place Temperature

Stations

Nearby Weather Stations

Station Location Temp. Windchill Dew Point Humidity Wind Precip. Elev Updated Type